METAR Data
IDs: Format: Raw Decoded Include TAF

Data at: 0256 UTC 27 Jan 2022

METAR for:KSBP (San Luis Obispo/Ches, CA, US)
Text:KSBP 270156Z 32006KT 10SM CLR 12/07 A3010 RMK AO2 SLP195 T01220067
Temperature: 12.2°C ( 54°F)
Dewpoint: 6.7°C ( 44°F) [RH = 69%]
Pressure (altimeter):30.10 inches Hg (1019.4 mb) [Sea level pressure: 1019.5 mb]
Winds:from the NW (320 degrees) at 7 MPH (6 knots; 3.1 m/s)
Visibility:10 or more sm (16+ km)
Ceiling:at least 12,000 feet AGL
Clouds:sky clear below 12,000 feet AGL

TAF for:KSBP (San Luis Obispo/Ches, CA, US) issued at 2341 UTC 26 Jan 2022
Text:KSBP 262341Z 2700/2724 31010KT P6SM SKC
Forecast period:0000 to 0200 UTC 27 January 2022
Forecast type:FROM: standard forecast or significant change
Winds:from the NW (310 degrees) at 12 MPH (10 knots; 5.1 m/s)
Visibility:6 or more sm (10+ km)
Ceiling:at least 12,000 feet AGL
Clouds:clear skies
Text:FM270200 VRB03KT P6SM SKC
Forecast period:0200 to 2100 UTC 27 January 2022
Forecast type:FROM: standard forecast or significant change
Winds:variable direction winds at 3 MPH (3 knots; 1.5 m/s)
Visibility:6 or more sm (10+ km)
Ceiling:at least 12,000 feet AGL
Clouds:clear skies
Text:FM272100 31008KT P6SM SKC
Forecast period:2100 UTC 27 January 2022 to 0000 UTC 28 January 2022
Forecast type:FROM: standard forecast or significant change
Winds:from the NW (310 degrees) at 9 MPH (8 knots; 4.1 m/s)
Visibility:6 or more sm (10+ km)
Ceiling:at least 12,000 feet AGL
Clouds:clear skies